Terminal Aerodrome Forecast
Issued by NWS Shreveport, LA

Home | Current Version | Previous Version | Text Only | Print | Product List | Glossary On
Versions: 1 2 3 4 5 6 7 8 9 10 11 12 13 14 15 16
558
FTUS44 KSHV 262037 AAA
TAFGGG
TAF AMD
KGGG 262037Z 2621/2718 23007KT P6SM SCT035
     FM270000 17004KT P6SM SCT050
      TEMPO 2710/2714 BKN015
     FM271400 23008KT P6SM SCT030=

USA.gov is the U.S. government's official web portal to all federal, state and local government web resources and services.